Hamburg, Arkansas
Current Conditions -  °F | °C
As of 10:53 PM on Monday 20 Oct 2014 (Local Time) from KLLQ Reporting Station
Clear Clear  
Wind Chill: 57°   Ceiling: Unl
Heat Index: 57°   Visibility: 10mi
Dew Point: 55°   Wind: 3mph
Humidity: 93%   Direction: 290°WNW
Pressure: 30.05"   Gusts: NA
Location:  33.23°N, 91.8°W
Report Text: KLLQ 210353Z AUTO 29003KT 10SM CLR 14/13 A3005 RMK AO2 SLP175 T01390128
Loading
Personal Weather Stations






























Interactive Weather Map New forecast layout! Learn more

10-Day Weather Forecast

Advertisements
Track Severe Weather on mobile